Terminal Aerodrome Forecast
Issued by NWS Paducah, KY

Home | Current Version | Previous Version | Text Only | Print | Product List | Glossary On
Versions: 1 2 3 4 5 6 7 8 9 10 11 12 13 14
384
FTUS43 KPAH 150520
TAFPAH
TAF
KPAH 150520Z 1506/1606 19009G18KT P6SM SKC
     FM151200 25011KT P6SM VCTS BKN060CB
     FM151400 29012G20KT P6SM -SHRA BKN030
     FM151800 33012G20KT P6SM SCT060 BKN150=

USA.gov is the U.S. government's official web portal to all federal, state and local government web resources and services.